Flight Sim Network - KNEL Airport Info

    KNEL (Lakehurst NAES /Maxfield Field)  Login to use Map Selector
   

  RUNWAY INFORMATION    |    Airport Elevation : 101ft    |    LAT : 40.03329849  /  LON : -74.353302
Runway Number 06 / 24 Runway Width 150' Runway Length 5000'
Lighted Runway Yes Runway StatusOpen Runway Surface Asphalt
Runway Number 15 / 33 Runway Width 150' Runway Length 5001'
Lighted Runway Yes Runway StatusOpen Runway Surface Asphalt
  CLOSE ALTERNATE AIRPORTS
ICAODistanceAirport NameLongest RWRW SurfaceMAP
KMJX7NMOcean County Airport5949FTAsphalt
N128NMLakewood3456FTAsphalt
KWRI11NMMc Guire Air Force Base10001FTAsphalt
16NJ12NMHummel Seaplane Base15000FTWATER
KBLM14NMMonmouth Executive Airport7300FTAsphalt
6NJ015NMLentine South Airport5200FTDirt
N8716NMTrenton-Robbinsville4275FTAsphalt
3N618NMOld Bridge3594FTAsphalt
N1422NMFlying W3498FTAsphalt
31E22NMEagles Nest3200FTAsphalt
  AIRPORT WEATHER
82°F | 28°C
Temperature
63%
Humidity
30" | 1016mb
Pressure
Visibility
Flight Rules
BKN @ 3700ft
Initial Clouds
FAIR
Conditions
Wind Info
7/23/24 17:00Z
Updated

KNEL 231700Z AUTO 29012KT BKN037 28/21 A3001 RMK AO2 SLP161 T02830206 $
  AIRPORT FREQUENCIES
NameFrequency
GROUND118.370
TOWER127.770
APPROACH120.250
DEPARTURE120.250

Powered by Virtual Airlines Manager